Time;durP1;ratioP1;P1;durP2;ratioP2;P2;SDS_P1;SDS_P2;PMS_P1;PMS_P2;Temp;Humidity;BMP_temperature;BMP_pressure;BME280_temperature;BME280_humidity;BME280_pressure;Samples;Min_cycle;Max_cycle;Signal;HPM_P1;HPM_P2
2021/12/21 00:04:07;;;;;;;5.50;3.42;;;;;;;2.86;57.59;101192.38;10212119;28;20214;-57
2021/12/21 00:09:09;;;;;;;6.90;3.88;;;;;;;2.83;57.77;101188.06;10210237;28;20059;-57
2021/12/21 00:14:18;;;;;;;8.48;3.97;;;;;;;2.74;57.94;101183.13;10213573;28;20129;-58
2021/12/21 00:24:23;;;;;;;5.63;3.20;;;;;;;2.81;58.82;101171.50;10219666;28;20074;-58
2021/12/21 00:29:25;;;;;;;6.53;3.80;;;;;;;2.78;57.72;101163.69;10226324;28;20110;-58
2021/12/21 00:34:26;;;;;;;6.65;3.22;;;;;;;2.80;57.48;101161.88;10208763;28;20138;-58
2021/12/21 00:39:27;;;;;;;5.50;3.38;;;;;;;2.80;57.80;101161.03;10211929;28;20130;-58
2021/12/21 00:44:29;;;;;;;6.22;3.50;;;;;;;2.73;58.02;101162.13;10217663;28;20150;-58
2021/12/21 00:49:31;;;;;;;8.35;4.25;;;;;;;2.77;58.07;101155.88;10210055;28;20114;-58
2021/12/21 00:54:32;;;;;;;5.40;3.58;;;;;;;2.75;58.19;101160.34;10191917;28;20437;-58
2021/12/21 00:59:34;;;;;;;6.97;3.08;;;;;;;2.68;58.08;101157.03;10209151;28;20654;-58
2021/12/21 01:04:43;;;;;;;7.55;4.10;;;;;;;2.59;58.22;101141.56;10209451;28;20051;-58
2021/12/21 01:10:20;;;;;;;6.40;3.60;;;;;;;2.63;58.25;101158.97;10205763;28;20138;-58
2021/12/21 01:25:54;;;;;;;8.43;4.10;;;;;;;2.51;58.82;101154.09;10210866;28;20130;-58
2021/12/21 01:35:59;;;;;;;8.05;4.22;;;;;;;2.44;59.08;101149.03;10209147;28;20070;-59
2021/12/21 01:41:09;;;;;;;5.47;4.07;;;;;;;2.44;58.82;101132.41;10209490;28;20146;-58
2021/12/21 01:51:41;;;;;;;6.18;4.32;;;;;;;2.44;59.07;101133.25;10128245;28;20051;-57
2021/12/21 01:56:43;;;;;;;5.25;3.78;;;;;;;2.41;59.28;101141.25;10206095;28;20364;-58
2021/12/21 02:01:44;;;;;;;7.57;3.97;;;;;;;2.32;59.28;101127.56;10285701;23;20292;-63
2021/12/21 02:06:48;;;;;;;8.20;4.20;;;;;;;2.37;59.04;101120.38;10271383;28;20046;-61
2021/12/21 02:11:50;;;;;;;7.38;4.22;;;;;;;2.35;58.96;101128.31;10280241;28;20060;-64
2021/12/21 02:17:27;;;;;;;6.72;4.72;;;;;;;2.17;59.50;101113.16;10243012;28;20085;-62
2021/12/21 02:22:28;;;;;;;8.23;4.15;;;;;;;2.25;59.63;101119.00;10271754;28;20118;-62
2021/12/21 02:27:41;;;;;;;6.65;4.30;;;;;;;2.25;59.60;101126.88;10272891;28;20145;-61
2021/12/21 02:32:43;;;;;;;6.03;3.95;;;;;;;2.18;59.95;101120.09;10258241;28;20050;-62
2021/12/21 02:37:45;;;;;;;7.13;4.47;;;;;;;2.10;59.83;101102.84;10259046;28;20047;-63
2021/12/21 02:42:46;;;;;;;5.38;4.10;;;;;;;2.15;60.01;101122.81;10292026;28;20605;-62
2021/12/21 02:47:48;;;;;;;6.53;4.00;;;;;;;2.13;59.90;101107.09;10280104;28;20071;-62
2021/12/21 02:52:51;;;;;;;6.60;4.28;;;;;;;2.14;59.89;101108.00;10276197;28;20051;-62
2021/12/21 02:57:52;;;;;;;9.05;4.78;;;;;;;2.10;60.41;101108.09;10264772;28;20050;-67
2021/12/21 03:02:54;;;;;;;7.53;4.47;;;;;;;2.08;60.38;101111.66;10272250;28;20413;-61
2021/12/21 03:18:36;;;;;;;7.85;4.30;;;;;;;2.05;60.68;101098.63;10266399;28;20045;-61
2021/12/21 03:23:38;;;;;;;6.68;4.68;;;;;;;2.02;60.85;101109.22;10292550;28;20789;-64
2021/12/21 03:28:39;;;;;;;7.85;5.03;;;;;;;1.87;60.71;101094.81;10276721;28;20133;-61
2021/12/21 03:33:40;;;;;;;7.70;4.93;;;;;;;1.92;60.94;101103.38;10265811;28;20141;-61
2021/12/21 03:38:50;;;;;;;8.07;4.82;;;;;;;1.79;60.82;101091.53;10270046;28;20137;-63
2021/12/21 03:43:52;;;;;;;7.78;5.63;;;;;;;1.83;60.89;101104.56;10280477;28;20117;-62
2021/12/21 03:48:54;;;;;;;7.20;5.10;;;;;;;1.80;61.25;101106.41;10263937;28;20057;-63
2021/12/21 03:53:55;;;;;;;9.43;5.30;;;;;;;1.78;61.33;101103.81;10264547;28;20053;-63
2021/12/21 03:58:57;;;;;;;7.60;5.32;;;;;;;1.78;61.32;101101.19;10262457;28;20085;-62
2021/12/21 04:04:00;;;;;;;7.53;4.78;;;;;;;1.66;61.48;101097.16;10261907;28;20094;-62
2021/12/21 04:09:04;;;;;;;7.30;5.72;;;;;;;1.59;61.75;101091.25;10251541;28;20066;-61
2021/12/21 04:14:07;;;;;;;8.82;4.75;;;;;;;1.51;61.48;101081.88;10287127;28;20049;-62
2021/12/21 04:19:09;;;;;;;8.77;5.68;;;;;;;1.52;61.78;101091.50;10258072;28;20073;-62
2021/12/21 04:24:10;;;;;;;7.57;5.22;;;;;;;1.49;61.81;101089.81;10265249;28;20118;-62
2021/12/21 04:29:12;;;;;;;8.45;5.55;;;;;;;1.41;62.24;101076.91;10263910;28;20042;-61
2021/12/21 04:34:13;;;;;;;11.05;6.38;;;;;;;1.54;62.12;101098.38;10263860;28;20049;-63
2021/12/21 04:39:34;;;;;;;7.95;6.00;;;;;;;1.49;61.92;101089.81;10267985;28;20211;-62
2021/12/21 04:44:36;;;;;;;9.82;6.20;;;;;;;1.56;62.11;101074.72;10279674;28;20062;-63
2021/12/21 04:49:37;;;;;;;9.18;6.65;;;;;;;1.66;62.04;101086.66;10272737;28;20141;-62
2021/12/21 04:54:40;;;;;;;7.53;5.43;;;;;;;1.63;61.95;101085.91;10268877;28;20117;-63
2021/12/21 04:59:41;;;;;;;7.80;6.15;;;;;;;1.54;62.46;101094.91;10243741;28;20060;-63
2021/12/21 05:04:43;;;;;;;9.73;5.72;;;;;;;1.45;62.33;101076.81;10273010;28;20085;-63
2021/12/21 05:09:49;;;;;;;8.25;5.90;;;;;;;1.40;62.51;101085.69;10271158;28;20155;-62
2021/12/21 05:14:51;;;;;;;8.90;6.55;;;;;;;1.53;62.33;101106.31;10273204;28;20054;-62
2021/12/21 05:19:53;;;;;;;9.88;6.18;;;;;;;1.57;62.36;101097.44;10261778;28;20046;-62
2021/12/21 05:24:58;;;;;;;12.75;6.88;;;;;;;1.58;62.32;101093.94;10246502;28;20051;-61
2021/12/21 05:29:59;;;;;;;8.80;5.90;;;;;;;1.64;61.84;101098.16;10285075;28;20515;-62
2021/12/21 05:35:01;;;;;;;8.82;6.20;;;;;;;1.46;62.33;101105.66;10263121;28;20154;-62
2021/12/21 05:40:14;;;;;;;9.32;6.10;;;;;;;1.29;62.58;101103.50;10284822;28;20065;-61
2021/12/21 05:45:17;;;;;;;11.18;7.07;;;;;;;1.30;63.07;101105.22;10287301;28;20039;-62
2021/12/21 05:50:19;;;;;;;11.43;7.97;;;;;;;1.12;63.02;101090.00;10290423;28;20054;-62
2021/12/21 05:55:21;;;;;;;8.60;6.97;;;;;;;1.09;63.03;101108.44;10262430;28;20051;-61
2021/12/21 06:00:29;;;;;;;11.32;7.85;;;;;;;0.99;63.62;101090.34;10287389;28;20074;-61
2021/12/21 06:05:30;;;;;;;10.27;6.97;;;;;;;1.12;63.31;101114.44;10261861;28;20461;-62
2021/12/21 06:10:39;;;;;;;11.73;6.43;;;;;;;1.14;63.55;101109.16;10278545;28;20157;-62
2021/12/21 06:16:07;;;;;;;12.63;7.32;;;;;;;1.12;63.31;101103.97;10273794;28;20133;-62
2021/12/21 06:26:24;;;;;;;9.68;6.93;;;;;;;0.93;63.93;101101.00;10282795;28;20076;-63
2021/12/21 06:31:26;;;;;;;11.48;7.25;;;;;;;1.03;63.61;101117.34;10310844;28;20520;-62
2021/12/21 06:36:28;;;;;;;10.88;7.22;;;;;;;1.06;63.78;101106.75;10273823;28;20050;-63
2021/12/21 06:41:30;;;;;;;10.93;7.78;;;;;;;1.08;63.74;101106.72;10285527;28;20050;-61
2021/12/21 06:51:51;;;;;;;11.57;7.43;;;;;;;0.92;64.00;101103.66;10293957;28;20101;-61
2021/12/21 06:56:53;;;;;;;9.57;6.75;;;;;;;1.23;63.95;101119.41;10295522;28;20046;-61
2021/12/21 07:01:54;;;;;;;10.63;7.65;;;;;;;1.27;63.54;101120.19;10280587;28;20047;-61
2021/12/21 07:06:57;;;;;;;10.00;6.60;;;;;;;1.18;63.06;101116.06;10267575;28;20442;-62
2021/12/21 07:22:55;;;;;;;14.75;6.53;;;;;;;0.90;63.64;101101.06;10056796;29;20465;-59
2021/12/21 07:27:58;;;;;;;9.82;6.85;;;;;;;0.85;63.79;101092.47;10212660;28;20058;-59
2021/12/21 07:32:59;;;;;;;9.40;7.13;;;;;;;0.89;63.67;101115.09;10257443;28;20062;-60
2021/12/21 07:38:00;;;;;;;9.80;6.70;;;;;;;0.82;63.73;101118.75;10263193;28;20051;-59
2021/12/21 07:43:03;;;;;;;14.80;8.02;;;;;;;0.77;63.50;101107.56;10258046;28;20609;-59
2021/12/21 07:48:04;;;;;;;10.13;6.93;;;;;;;0.85;63.51;101116.91;10261880;28;20046;-59
2021/12/21 07:53:06;;;;;;;8.80;7.32;;;;;;;0.99;63.18;101127.06;10265390;28;20058;-60
2021/12/21 07:58:08;;;;;;;12.40;7.60;;;;;;;1.03;62.98;101139.16;10258948;28;20061;-61
2021/12/21 08:03:14;;;;;;;10.65;7.03;;;;;;;1.04;63.07;101138.25;10262649;28;20073;-60
2021/12/21 08:08:20;;;;;;;12.38;8.38;;;;;;;1.09;63.07;101148.63;10263448;28;20797;-60
2021/12/21 08:13:22;;;;;;;14.43;7.38;;;;;;;1.21;63.08;101142.19;10264152;28;20043;-59
2021/12/21 08:18:23;;;;;;;13.60;7.35;;;;;;;1.17;62.51;101124.81;10240432;28;20584;-59
2021/12/21 08:23:26;;;;;;;10.27;7.57;;;;;;;1.34;62.69;101143.56;10260391;28;20161;-59
2021/12/21 08:28:27;;;;;;;11.57;6.05;;;;;;;1.33;62.94;101141.00;10244107;28;20106;-60
2021/12/21 08:33:29;;;;;;;18.48;11.98;;;;;;;1.46;62.90;101137.13;10251056;28;20089;-59
2021/12/21 08:38:31;;;;;;;50.35;27.83;;;;;;;1.42;62.77;101136.34;10260467;28;20655;-61
2021/12/21 08:43:35;;;;;;;25.17;16.63;;;;;;;1.52;62.43;101141.34;10256308;28;20049;-61
2021/12/21 08:48:36;;;;;;;20.33;14.32;;;;;;;1.51;61.93;101132.59;10232924;28;20053;-61
2021/12/21 08:53:42;;;;;;;16.13;9.98;;;;;;;1.35;61.79;101103.34;10258094;28;20073;-59
2021/12/21 08:58:43;;;;;;;11.70;7.53;;;;;;;1.63;62.12;101136.63;10259074;28;20109;-59
2021/12/21 09:03:45;;;;;;;10.18;9.13;;;;;;;1.72;61.45;101143.38;10258194;28;20049;-60
2021/12/21 09:08:47;;;;;;;9.55;7.70;;;;;;;1.74;61.43;101146.81;10259490;28;20121;-60
2021/12/21 09:13:48;;;;;;;9.25;7.20;;;;;;;1.71;61.58;101129.41;10241353;28;20233;-60
2021/12/21 09:18:50;;;;;;;10.65;7.30;;;;;;;1.87;61.65;101155.19;10254821;28;20050;-60
2021/12/21 09:23:51;;;;;;;12.25;7.40;;;;;;;1.93;61.06;101141.88;10257242;28;20052;-59
2021/12/21 09:28:56;;;;;;;8.43;6.15;;;;;;;2.01;61.48;101153.03;10255431;28;20598;-61
2021/12/21 09:33:57;;;;;;;7.27;6.30;;;;;;;2.09;61.08;101158.03;10255216;28;20043;-59
2021/12/21 09:38:59;;;;;;;10.23;7.00;;;;;;;2.07;60.90;101154.59;10254296;28;20047;-61
2021/12/21 09:44:01;;;;;;;11.73;7.20;;;;;;;2.16;60.86;101164.81;10255344;28;20088;-63
2021/12/21 09:49:03;;;;;;;9.30;6.28;;;;;;;2.28;60.37;101163.56;10257095;28;20055;-60
2021/12/21 09:54:04;;;;;;;8.73;5.53;;;;;;;2.33;60.43;101159.03;10254788;28;20065;-61
2021/12/21 09:59:07;;;;;;;8.45;5.40;;;;;;;2.48;60.00;101165.56;10237672;28;21472;-61
2021/12/21 10:04:08;;;;;;;6.32;4.30;;;;;;;2.66;59.90;101148.34;10253279;28;20077;-62
2021/12/21 10:09:11;;;;;;;8.88;4.90;;;;;;;2.67;59.04;101144.78;10254288;28;20165;-63
2021/12/21 10:14:32;;;;;;;5.57;4.90;;;;;;;2.73;58.81;101139.34;10253174;28;20062;-62
2021/12/21 10:19:35;;;;;;;8.82;5.10;;;;;;;2.99;58.99;101134.97;10252959;28;20535;-61
2021/12/21 10:24:48;;;;;;;7.78;4.85;;;;;;;3.17;58.03;101131.66;10255140;28;20067;-62
2021/12/21 10:29:53;;;;;;;9.20;4.80;;;;;;;3.21;57.41;101107.88;10254166;28;20099;-61
2021/12/21 10:34:54;;;;;;;5.67;4.77;;;;;;;3.57;56.59;101128.50;10252177;28;20046;-61
2021/12/21 10:40:21;;;;;;;8.77;5.45;;;;;;;3.92;56.56;101124.53;10238550;28;20059;-61
2021/12/21 10:45:28;;;;;;;6.13;4.38;;;;;;;4.28;54.94;101124.00;10258070;28;20057;-61
2021/12/21 10:50:33;;;;;;;6.10;4.65;;;;;;;4.73;53.36;101114.25;10251436;28;20047;-61
2021/12/21 10:55:38;;;;;;;9.90;5.18;;;;;;;5.52;51.91;101111.66;10253394;28;20073;-62
2021/12/21 11:01:08;;;;;;;7.90;4.57;;;;;;;7.97;45.98;101112.56;10254338;28;20061;-60
2021/12/21 11:06:16;;;;;;;7.35;3.83;;;;;;;11.88;37.96;101108.16;10260887;28;20042;-60
2021/12/21 11:11:42;;;;;;;6.60;3.90;;;;;;;14.47;32.51;101099.69;10250090;28;22254;-60
2021/12/21 11:16:46;;;;;;;7.03;5.22;;;;;;;16.59;29.46;101079.34;10261320;28;20237;-61
2021/12/21 11:21:48;;;;;;;7.20;4.78;;;;;;;17.82;26.50;101079.41;10248817;28;20072;-60
2021/12/21 11:26:50;;;;;;;5.53;4.53;;;;;;;18.72;25.27;101080.28;10258072;28;20101;-61
2021/12/21 11:31:54;;;;;;;7.50;4.78;;;;;;;19.21;24.24;101078.94;10257706;28;20051;-61
2021/12/21 11:42:32;;;;;;;5.72;4.47;;;;;;;20.08;22.96;101063.44;10254806;28;20569;-60
2021/12/21 11:47:53;;;;;;;4.35;3.67;;;;;;;20.91;21.98;101066.19;10260195;23;20054;-61
2021/12/21 11:53:02;;;;;;;7.32;4.63;;;;;;;22.21;20.81;101066.66;10247625;28;20070;-61
2021/12/21 11:58:21;;;;;;;5.30;3.42;;;;;;;22.30;20.33;101067.44;10256780;28;20133;-61
2021/12/21 12:03:25;;;;;;;5.35;3.10;;;;;;;22.64;19.84;101046.34;10253806;28;20133;-61
2021/12/21 12:08:41;;;;;;;4.88;3.90;;;;;;;22.92;19.45;101039.28;10249860;28;20312;-60
2021/12/21 12:13:43;;;;;;;5.20;3.85;;;;;;;23.35;19.10;101021.53;10251085;28;20062;-61
2021/12/21 12:18:49;;;;;;;;;;;;;;;23.36;18.77;101028.63;10256745;28;20056;-60
2021/12/21 12:23:55;;;;;;;4.25;2.97;;;;;;;23.43;19.08;101024.13;10259912;28;20021;-61
2021/12/21 12:29:18;;;;;;;4.28;3.20;;;;;;;23.57;18.57;101025.13;10255492;28;20072;-63
2021/12/21 12:34:32;;;;;;;10.13;3.75;;;;;;;23.95;18.10;101028.53;10251878;28;20132;-60
2021/12/21 12:39:36;;;;;;;5.60;3.13;;;;;;;24.22;18.13;101020.63;10251012;28;20050;-62
2021/12/21 12:44:41;;;;;;;4.88;3.63;;;;;;;24.34;17.76;101010.06;10251521;28;20047;-62
2021/12/21 12:49:51;;;;;;;5.75;3.45;;;;;;;24.20;17.82;100998.25;10253165;28;20200;-62
2021/12/21 12:54:55;;;;;;;4.47;3.28;;;;;;;23.82;18.19;101003.88;10253286;28;20128;-62
2021/12/21 13:00:31;;;;;;;5.78;3.67;;;;;;;24.29;17.64;101004.34;10254690;28;20129;-62
2021/12/21 13:05:39;;;;;;;4.32;3.00;;;;;;;24.75;17.43;100989.47;10235217;28;20057;-67
2021/12/21 13:10:44;;;;;;;4.70;3.72;;;;;;;23.45;17.81;100995.75;10245484;28;20058;-62
2021/12/21 13:15:49;;;;;;;5.05;3.80;;;;;;;23.70;18.34;100987.22;10243273;28;20062;-60
2021/12/21 13:20:52;;;;;;;6.53;3.63;;;;;;;23.39;18.15;100990.22;10253918;28;20050;-61
2021/12/21 13:25:56;;;;;;;4.53;3.00;;;;;;;22.74;18.71;100987.22;10252558;28;20157;-61
2021/12/21 13:30:58;;;;;;;4.72;2.75;;;;;;;21.99;19.44;100988.88;10251916;28;20042;-59
2021/12/21 13:36:06;;;;;;;4.88;3.53;;;;;;;20.81;20.71;100982.50;10249485;28;20194;-61
2021/12/21 13:41:14;;;;;;;4.65;2.88;;;;;;;18.79;23.07;100993.34;10251325;28;20374;-60
2021/12/21 13:46:16;;;;;;;3.60;2.95;;;;;;;16.11;25.93;100993.38;10251019;28;20163;-59
2021/12/21 13:51:18;;;;;;;4.43;3.13;;;;;;;13.14;31.05;100996.31;10249842;28;20050;-59
2021/12/21 13:56:22;;;;;;;4.38;3.20;;;;;;;11.07;34.92;101006.38;10251851;28;20356;-59
2021/12/21 14:01:26;;;;;;;4.43;3.50;;;;;;;9.96;37.52;100997.91;10249229;28;20060;-59
2021/12/21 14:06:29;;;;;;;6.53;3.60;;;;;;;9.16;39.82;100998.59;10245729;28;20532;-58
2021/12/21 14:11:41;;;;;;;4.35;3.75;;;;;;;8.68;41.51;100998.84;10245198;28;20063;-59
2021/12/21 14:16:48;;;;;;;7.57;3.50;;;;;;;8.26;42.14;100998.63;10244470;28;20050;-59
2021/12/21 14:21:54;;;;;;;6.85;4.20;;;;;;;7.83;43.03;100992.31;10248766;28;20138;-59
2021/12/21 14:26:59;;;;;;;6.57;4.22;;;;;;;7.72;43.73;101007.03;10254368;28;20054;-59
2021/12/21 14:37:13;;;;;;;14.48;7.80;;;;;;;7.23;45.33;100981.47;10253104;28;20040;-58
2021/12/21 14:42:17;;;;;;;24.77;11.95;;;;;;;7.04;45.96;100994.88;10259642;28;20503;-58
2021/12/21 14:47:26;;;;;;;14.48;8.30;;;;;;;6.82;46.68;100994.31;10260855;28;20213;-58
2021/12/21 14:52:39;;;;;;;10.90;6.50;;;;;;;6.67;46.80;100999.47;10258737;28;20069;-58
2021/12/21 14:57:46;;;;;;;12.20;7.68;;;;;;;6.47;47.71;101002.28;10253062;28;20704;-57
2021/12/21 15:02:51;;;;;;;13.70;7.40;;;;;;;6.21;48.96;101001.81;10256150;28;20046;-57
2021/12/21 15:07:56;;;;;;;8.45;6.20;;;;;;;5.84;49.78;100982.50;10258115;28;20505;-58
2021/12/21 15:13:03;;;;;;;13.73;6.25;;;;;;;5.83;50.47;100994.81;10258267;28;20047;-57
2021/12/21 15:18:07;;;;;;;7.88;4.95;;;;;;;5.64;50.87;101002.81;10277833;28;20050;-57
2021/12/21 15:23:09;;;;;;;8.82;4.90;;;;;;;5.53;51.27;101007.72;10273699;28;21875;-58
2021/12/21 15:28:11;;;;;;;7.57;4.78;;;;;;;5.38;51.70;101004.03;10265421;28;20701;-57
2021/12/21 15:33:12;;;;;;;5.78;4.75;;;;;;;5.24;51.87;101004.69;10280006;28;20657;-57
2021/12/21 15:38:14;;;;;;;8.15;5.28;;;;;;;5.14;52.62;100998.09;10273307;28;20158;-57
2021/12/21 15:43:15;;;;;;;7.82;5.25;;;;;;;5.00;52.47;100997.88;10269483;28;20185;-56
2021/12/21 15:48:17;;;;;;;8.90;4.93;;;;;;;4.89;53.16;101009.75;10291882;28;20265;-56
2021/12/21 15:53:19;;;;;;;7.38;5.47;;;;;;;4.77;53.56;101010.31;10291578;28;20109;-58
2021/12/21 15:58:23;;;;;;;7.07;5.53;;;;;;;4.73;53.66;101011.38;10261301;28;20133;-58
2021/12/21 16:03:24;;;;;;;9.90;5.23;;;;;;;4.66;53.87;101008.16;10290493;28;20839;-58
2021/12/21 16:08:26;;;;;;;6.78;4.93;;;;;;;4.59;54.48;101007.56;10288772;28;20078;-59
2021/12/21 16:13:28;;;;;;;8.32;5.95;;;;;;;4.49;55.31;101000.97;10289629;28;20499;-57
2021/12/21 16:18:29;;;;;;;6.63;5.78;;;;;;;4.46;55.47;101016.94;10291755;28;20467;-59
2021/12/21 16:23:31;;;;;;;8.45;6.35;;;;;;;4.46;55.76;101023.97;10289635;28;20133;-57
2021/12/21 16:28:33;;;;;;;8.98;6.38;;;;;;;4.34;56.15;101017.44;10268813;28;20042;-57
2021/12/21 16:33:34;;;;;;;6.97;6.28;;;;;;;4.35;56.30;101027.06;10287325;28;20142;-57
2021/12/21 16:38:36;;;;;;;8.27;5.80;;;;;;;4.27;56.59;101021.28;10289982;28;20050;-56
2021/12/21 16:43:39;;;;;;;9.55;6.10;;;;;;;4.23;57.05;101023.16;10288414;28;20100;-57
2021/12/21 16:48:42;;;;;;;7.05;6.35;;;;;;;4.17;56.89;101021.63;10287376;28;20750;-58
2021/12/21 16:53:46;;;;;;;;;;;;;;;4.17;56.89;101026.91;10275414;28;20053;-57
2021/12/21 16:58:51;;;;;;;12.10;6.82;;;;;;;4.11;57.05;101026.31;10274973;28;20016;-57
2021/12/21 17:03:53;;;;;;;7.90;5.93;;;;;;;4.04;57.41;101031.00;10286783;28;20054;-58
2021/12/21 17:08:58;;;;;;;10.60;7.18;;;;;;;3.93;57.59;101022.66;10281458;28;20042;-58
2021/12/21 17:14:00;;;;;;;10.63;6.45;;;;;;;3.91;57.71;101020.06;10288677;28;20062;-60
2021/12/21 17:19:03;;;;;;;8.40;6.05;;;;;;;3.85;57.42;101023.81;10288206;28;20347;-57
2021/12/21 17:24:05;;;;;;;9.57;7.03;;;;;;;3.83;57.83;101028.28;10273443;28;20057;-56
2021/12/21 17:29:07;;;;;;;10.02;7.47;;;;;;;3.83;57.76;101038.81;10285378;28;20152;-56
2021/12/21 17:34:09;;;;;;;10.00;7.25;;;;;;;3.77;57.77;101033.81;10265898;28;20076;-57
2021/12/21 17:39:11;;;;;;;8.80;6.20;;;;;;;3.74;57.65;101033.94;10282568;28;20145;-57
2021/12/21 17:44:12;;;;;;;8.65;6.15;;;;;;;3.74;57.47;101049.72;10285060;28;20129;-58
2021/12/21 17:49:14;;;;;;;9.63;6.13;;;;;;;3.59;58.05;101034.50;10286376;28;20112;-58
2021/12/21 17:54:15;;;;;;;9.38;6.90;;;;;;;3.53;58.11;101023.31;10282945;23;20071;-60
2021/12/21 17:59:17;;;;;;;14.98;7.75;;;;;;;3.54;58.33;101035.56;10214526;28;20078;-60
2021/12/21 18:04:20;;;;;;;11.55;8.80;;;;;;;3.50;58.49;101033.97;10205428;28;20554;-61
2021/12/21 18:09:22;;;;;;;14.48;11.10;;;;;;;3.34;59.32;101022.31;10206553;28;20073;-61
2021/12/21 18:14:23;;;;;;;11.85;8.75;;;;;;;3.37;59.18;101035.34;10210489;28;20051;-62
2021/12/21 18:19:25;;;;;;;11.93;9.30;;;;;;;3.41;59.45;101051.88;10208516;28;20174;-62
2021/12/21 18:24:27;;;;;;;12.45;8.57;;;;;;;3.38;59.60;101052.88;10221721;28;20082;-62
2021/12/21 18:29:29;;;;;;;12.70;8.77;;;;;;;3.32;59.62;101047.84;10217614;28;20130;-62
2021/12/21 18:34:30;;;;;;;12.52;9.15;;;;;;;3.50;59.33;101072.59;10215666;28;20051;-61
2021/12/21 18:39:32;;;;;;;13.13;8.32;;;;;;;3.35;59.67;101089.81;10221580;28;20155;-59
2021/12/21 18:44:34;;;;;;;10.60;8.25;;;;;;;3.33;60.19;101078.47;10207993;28;20637;-60
2021/12/21 18:49:37;;;;;;;13.93;9.75;;;;;;;3.31;60.25;101077.69;10237879;28;20083;-61
2021/12/21 18:54:38;;;;;;;12.30;9.57;;;;;;;3.32;60.23;101082.03;10231175;28;20047;-63
2021/12/21 18:59:40;;;;;;;10.25;7.20;;;;;;;3.28;60.25;101089.19;10248125;28;20042;-61
2021/12/21 19:04:41;;;;;;;10.05;6.95;;;;;;;3.29;60.24;101090.06;10248568;28;20051;-62
2021/12/21 19:09:43;;;;;;;10.70;8.82;;;;;;;3.35;60.44;101084.56;10244357;28;20059;-61
2021/12/21 19:14:44;;;;;;;10.23;7.32;;;;;;;3.18;60.63;101099.19;10245775;28;20200;-62
2021/12/21 19:19:45;;;;;;;10.55;8.02;;;;;;;3.04;60.93;101083.03;10236373;28;20086;-62
2021/12/21 19:24:47;;;;;;;11.50;8.00;;;;;;;3.06;61.18;101114.53;10228244;28;20115;-62
2021/12/21 19:29:48;;;;;;;12.88;8.45;;;;;;;3.03;61.08;101110.25;10245135;28;20062;-62
2021/12/21 19:34:50;;;;;;;13.43;8.55;;;;;;;2.98;61.34;101106.94;10231985;28;20139;-62
2021/12/21 19:39:51;;;;;;;10.38;8.10;;;;;;;3.04;60.93;101093.56;10224689;28;20098;-62
2021/12/21 19:44:54;;;;;;;10.20;8.52;;;;;;;3.00;61.23;101107.72;10223616;28;20699;-62
2021/12/21 19:49:55;;;;;;;12.27;9.00;;;;;;;2.99;61.23;101098.13;10221854;28;20498;-62
2021/12/21 19:54:56;;;;;;;12.18;9.23;;;;;;;2.82;61.92;101086.44;10233208;28;20051;-63
2021/12/21 19:59:58;;;;;;;11.80;9.07;;;;;;;3.04;61.71;101105.88;10248937;28;20594;-61
2021/12/21 20:05:00;;;;;;;10.27;8.82;;;;;;;3.04;61.51;101106.72;10237266;28;20066;-61
2021/12/21 20:10:06;;;;;;;13.05;9.15;;;;;;;3.04;61.66;101106.72;10240439;28;20066;-62
2021/12/21 20:15:13;;;;;;;12.60;9.90;;;;;;;3.09;61.81;101112.69;10239970;28;20059;-62
2021/12/21 20:20:17;;;;;;;14.63;11.18;;;;;;;3.11;61.13;101113.47;10227614;28;20047;-64
2021/12/21 20:25:18;;;;;;;13.43;9.32;;;;;;;3.02;61.25;101113.81;10223705;28;20087;-61
2021/12/21 20:30:20;;;;;;;10.77;9.13;;;;;;;2.93;61.47;101114.13;10210567;28;20138;-60
2021/12/21 20:35:26;;;;;;;9.55;7.47;;;;;;;2.96;61.29;101116.66;10203428;28;20061;-61
2021/12/21 20:40:29;;;;;;;10.32;7.45;;;;;;;2.97;61.25;101116.59;10201673;28;20053;-61
2021/12/21 20:45:31;;;;;;;11.15;8.05;;;;;;;2.76;61.98;101112.94;10202414;28;20054;-61
2021/12/21 20:50:34;;;;;;;11.65;8.85;;;;;;;2.91;61.64;101136.97;10199108;28;20061;-62
2021/12/21 20:55:39;;;;;;;10.45;7.22;;;;;;;2.86;61.21;101128.41;10205090;28;20043;-63
2021/12/21 21:00:42;;;;;;;;;;;;;;;2.80;61.46;101145.25;10205700;28;20043;-61
2021/12/21 21:05:44;;;;;;;11.30;8.60;;;;;;;2.58;61.98;101140.72;10201860;28;19923;-61
2021/12/21 21:10:46;;;;;;;10.23;8.57;;;;;;;2.52;62.52;101134.78;10204706;28;20055;-61
2021/12/21 21:15:48;;;;;;;13.48;9.20;;;;;;;2.31;62.90;101121.41;10187965;28;20502;-62
2021/12/21 21:20:50;;;;;;;15.50;9.38;;;;;;;2.26;62.66;101112.84;10205406;28;20300;-61
2021/12/21 21:25:52;;;;;;;12.23;8.73;;;;;;;2.25;63.07;101132.13;10204510;28;20135;-61
2021/12/21 21:30:53;;;;;;;15.10;9.60;;;;;;;2.21;63.58;101127.91;10217873;28;20047;-62
2021/12/21 21:35:55;;;;;;;11.68;9.13;;;;;;;2.23;63.20;101160.22;10215978;28;20146;-63
2021/12/21 21:40:56;;;;;;;13.02;9.23;;;;;;;2.20;63.61;101165.59;10203418;28;20118;-61
2021/12/21 21:45:57;;;;;;;12.25;8.93;;;;;;;2.15;63.68;101143.84;10218884;28;20094;-61
2021/12/21 21:51:01;;;;;;;12.50;9.23;;;;;;;2.19;63.05;101156.84;10192828;28;20059;-61
2021/12/21 21:56:08;;;;;;;11.77;8.48;;;;;;;2.01;63.16;101129.41;10213321;28;20070;-61
2021/12/21 22:01:10;;;;;;;11.40;9.15;;;;;;;2.24;63.40;101154.94;10223173;28;20059;-60
2021/12/21 22:06:11;;;;;;;11.50;9.10;;;;;;;2.15;63.34;101156.97;10222826;28;20142;-60
2021/12/21 22:11:13;;;;;;;12.70;9.60;;;;;;;2.10;63.36;101162.38;10224363;28;20051;-60
2021/12/21 22:16:15;;;;;;;11.38;8.68;;;;;;;2.09;63.69;101166.78;10221705;28;20051;-60
2021/12/21 22:21:17;;;;;;;11.48;10.02;;;;;;;1.88;63.80;101144.66;10220041;28;20053;-61
2021/12/21 22:26:20;;;;;;;12.68;10.10;;;;;;;1.88;63.88;101154.31;10221823;28;20145;-60
2021/12/21 22:31:25;;;;;;;14.50;10.02;;;;;;;1.99;64.15;101162.69;10212737;28;20493;-60
2021/12/21 22:36:28;;;;;;;13.57;9.68;;;;;;;1.88;64.15;101176.16;10221882;28;20143;-61
2021/12/21 22:41:29;;;;;;;12.00;9.05;;;;;;;1.73;64.46;101161.72;10221483;28;20425;-60
2021/12/21 22:46:30;;;;;;;12.40;9.13;;;;;;;1.71;64.31;101160.91;10221635;28;20065;-60
2021/12/21 22:51:32;;;;;;;12.23;10.05;;;;;;;1.79;64.75;101191.31;10216403;28;20396;-59
2021/12/21 22:56:33;;;;;;;12.15;9.27;;;;;;;1.85;64.26;101183.28;10206451;28;20471;-59
2021/12/21 23:01:35;;;;;;;11.82;8.85;;;;;;;1.72;64.54;101180.97;10228017;28;20130;-60
2021/12/21 23:06:36;;;;;;;13.30;9.43;;;;;;;1.74;64.73;101192.31;10227110;28;20126;-60
2021/12/21 23:11:38;;;;;;;12.88;9.48;;;;;;;1.88;64.42;101206.81;10229232;28;20053;-60
2021/12/21 23:16:39;;;;;;;13.43;9.50;;;;;;;1.80;64.65;101203.53;10229148;28;20154;-59
2021/12/21 23:21:40;;;;;;;12.55;8.93;;;;;;;1.85;64.60;101214.78;10212128;28;20049;-59
2021/12/21 23:26:47;;;;;;;11.52;8.93;;;;;;;1.91;64.79;101218.06;10227221;28;20437;-59
2021/12/21 23:31:49;;;;;;;11.98;8.88;;;;;;;1.98;63.96;101205.63;10210867;28;20043;-61
2021/12/21 23:36:51;;;;;;;11.38;8.75;;;;;;;1.77;64.43;101200.09;10228692;28;20162;-59
2021/12/21 23:42:06;;;;;;;10.82;8.63;;;;;;;1.69;64.83;101196.81;10227026;28;21031;-59
2021/12/21 23:47:08;;;;;;;10.20;8.35;;;;;;;1.55;64.25;101178.00;10227670;28;20194;-59
2021/12/21 23:52:09;;;;;;;10.80;8.65;;;;;;;1.52;64.51;101178.94;10222173;28;20295;-59
2021/12/21 23:57:11;;;;;;;12.02;10.70;;;;;;;1.34;65.48;101179.47;10226933;28;20248;-59
